Time;durP1;ratioP1;P1;durP2;ratioP2;P2;SDS_P1;SDS_P2;PMS_P1;PMS_P2;Temp;Humidity;BMP_temperature;BMP_pressure;BME280_temperature;BME280_humidity;BME280_pressure;Samples;Min_cycle;Max_cycle;Signal;HPM_P1;HPM_P2
2023/06/17 00:02:07;;;;;;;;;;;24.10;57.00;;;;;;5072360;28;20304;-54
2023/06/17 00:04:32;;;;;;;;;;;24.10;57.30;;;;;;5080268;28;20406;-55
2023/06/17 00:06:58;;;;;;;;;;;24.00;57.40;;;;;;5084474;28;19913;-55
2023/06/17 00:09:25;;;;;;;;;;;24.00;57.50;;;;;;5071017;28;20010;-54
2023/06/17 00:11:51;;;;;;;;;;;24.00;57.40;;;;;;5066259;28;19936;-54
2023/06/17 00:14:17;;;;;;;;;;;24.00;57.30;;;;;;5060228;28;19912;-55
2023/06/17 00:16:43;;;;;;;;;;;24.00;57.50;;;;;;5056306;28;20334;-55
2023/06/17 00:19:15;;;;;;;;;;;24.00;57.50;;;;;;5094407;28;19919;-53
2023/06/17 00:21:40;;;;;;;;;;;24.00;57.50;;;;;;5066071;28;19974;-53
2023/06/17 00:24:05;;;;;;;;;;;24.00;57.70;;;;;;5061670;28;20385;-53
2023/06/17 00:26:31;;;;;;;;;;;24.00;57.70;;;;;;5058689;28;19912;-53
2023/06/17 00:28:57;;;;;;;;;;;24.00;57.60;;;;;;5060237;28;19912;-52
2023/06/17 00:31:22;;;;;;;;;;;23.90;57.60;;;;;;5058761;28;19913;-53
2023/06/17 00:33:48;;;;;;;;;;;24.00;57.60;;;;;;5058965;28;19912;-53
2023/06/17 00:36:13;;;;;;;;;;;23.80;57.70;;;;;;5058985;28;19920;-52
2023/06/17 00:38:39;;;;;;;;;;;23.80;57.60;;;;;;5059628;28;19918;-52
2023/06/17 00:41:04;;;;;;;;;;;23.80;57.90;;;;;;5061610;28;19995;-53
2023/06/17 00:43:30;;;;;;;;;;;23.80;57.60;;;;;;5061075;28;19929;-52
2023/06/17 00:45:55;;;;;;;;;;;23.80;57.70;;;;;;5056882;28;19917;-52
2023/06/17 00:48:21;;;;;;;;;;;23.80;57.70;;;;;;5059100;28;19913;-53
2023/06/17 00:50:47;;;;;;;;;;;23.80;57.50;;;;;;5058769;28;20348;-53
2023/06/17 00:53:12;;;;;;;;;;;23.80;57.80;;;;;;5059879;28;19912;-52
2023/06/17 00:55:39;;;;;;;;;;;23.90;57.70;;;;;;5055692;28;20289;-52
2023/06/17 00:58:06;;;;;;;;;;;23.90;57.50;;;;;;5068249;28;20300;-53
2023/06/17 01:00:31;;;;;;;;;;;23.90;57.40;;;;;;5069364;28;20380;-53
2023/06/17 01:02:58;;;;;;;;;;;24.00;57.40;;;;;;5064657;28;19958;-52
2023/06/17 01:05:23;;;;;;;;;;;23.90;57.40;;;;;;5064057;28;20011;-53
2023/06/17 01:07:50;;;;;;;;;;;24.00;57.40;;;;;;5072057;28;20007;-53
2023/06/17 01:10:15;;;;;;;;;;;23.90;57.30;;;;;;5063840;28;19920;-53
2023/06/17 01:12:41;;;;;;;;;;;24.00;57.40;;;;;;5057257;28;19913;-53
2023/06/17 01:15:10;;;;;;;;;;;23.80;57.20;;;;;;5084362;28;19908;-53
2023/06/17 01:17:36;;;;;;;;;;;23.70;57.70;;;;;;5062475;28;19921;-53
2023/06/17 01:20:03;;;;;;;;;;;23.80;57.60;;;;;;5091328;28;19916;-53
2023/06/17 01:22:29;;;;;;;;;;;23.80;57.70;;;;;;5088560;28;19973;-52
2023/06/17 01:24:56;;;;;;;;;;;23.80;58.10;;;;;;5091971;28;19916;-53
2023/06/17 01:27:23;;;;;;;;;;;23.90;57.30;;;;;;5054556;28;19912;-52
2023/06/17 01:29:48;;;;;;;;;;;24.00;57.30;;;;;;5058871;28;19917;-53
2023/06/17 01:32:14;;;;;;;;;;;23.90;57.20;;;;;;5057689;28;19970;-52
2023/06/17 01:34:51;;;;;;;;;;;23.90;57.30;;;;;;5056550;28;20315;-53
2023/06/17 01:37:20;;;;;;;;;;;24.00;57.20;;;;;;5058083;28;19920;-52
2023/06/17 01:39:45;;;;;;;;;;;24.00;57.10;;;;;;5055405;28;20367;-53
2023/06/17 01:42:16;;;;;;;;;;;23.90;57.00;;;;;;5057744;28;20008;-53
2023/06/17 01:44:41;;;;;;;;;;;23.90;57.10;;;;;;5086399;28;20331;-52
2023/06/17 01:47:09;;;;;;;;;;;23.90;57.30;;;;;;5091444;28;19913;-52
2023/06/17 01:49:35;;;;;;;;;;;23.80;57.40;;;;;;5074964;28;19971;-53
2023/06/17 01:52:00;;;;;;;;;;;23.80;57.50;;;;;;5104057;28;19916;-52
2023/06/17 01:54:27;;;;;;;;;;;23.80;57.50;;;;;;5071494;28;20011;-52
2023/06/17 01:56:53;;;;;;;;;;;23.80;57.40;;;;;;5070143;28;19916;-53
2023/06/17 01:59:18;;;;;;;;;;;23.90;57.30;;;;;;5066749;28;19974;-53
2023/06/17 02:01:44;;;;;;;;;;;23.90;57.20;;;;;;5098020;28;19960;-52
2023/06/17 02:04:09;;;;;;;;;;;23.80;57.20;;;;;;5072208;28;19956;-53
2023/06/17 02:06:35;;;;;;;;;;;23.90;57.30;;;;;;5071765;28;19938;-52
2023/06/17 02:09:00;;;;;;;;;;;23.90;57.10;;;;;;5067263;28;19920;-52
2023/06/17 02:11:27;;;;;;;;;;;23.90;57.00;;;;;;5051123;28;20373;-53
2023/06/17 02:13:52;;;;;;;;;;;23.90;57.00;;;;;;5052331;28;19913;-52
2023/06/17 02:16:17;;;;;;;;;;;24.00;56.90;;;;;;5068273;28;19920;-52
2023/06/17 02:18:43;;;;;;;;;;;23.90;57.00;;;;;;5065333;28;19917;-53
2023/06/17 02:21:09;;;;;;;;;;;23.90;57.00;;;;;;5056014;28;19922;-53
2023/06/17 02:23:35;;;;;;;;;;;23.90;57.00;;;;;;5055346;28;20295;-52
2023/06/17 02:26:00;;;;;;;;;;;23.80;57.10;;;;;;5059066;28;20150;-52
2023/06/17 02:28:25;;;;;;;;;;;23.80;57.20;;;;;;5058623;28;20385;-52
2023/06/17 02:30:51;;;;;;;;;;;23.80;57.20;;;;;;5059597;28;19919;-53
2023/06/17 02:33:18;;;;;;;;;;;23.80;57.30;;;;;;5063284;28;20007;-52
2023/06/17 02:35:44;;;;;;;;;;;23.80;57.20;;;;;;5060205;28;19924;-52
2023/06/17 02:38:10;;;;;;;;;;;23.80;57.10;;;;;;5062774;28;19912;-52
2023/06/17 02:40:35;;;;;;;;;;;23.80;57.30;;;;;;5059773;28;19919;-53
2023/06/17 02:43:01;;;;;;;;;;;23.70;57.30;;;;;;5063964;28;20284;-53
2023/06/17 02:45:26;;;;;;;;;;;23.70;57.40;;;;;;5090981;28;20003;-53
2023/06/17 02:47:52;;;;;;;;;;;23.80;57.30;;;;;;5063827;28;19921;-52
2023/06/17 02:50:21;;;;;;;;;;;23.70;57.40;;;;;;5060792;28;19912;-52
2023/06/17 02:52:47;;;;;;;;;;;23.70;57.40;;;;;;5054049;28;19913;-52
2023/06/17 02:55:15;;;;;;;;;;;23.80;57.40;;;;;;5061254;28;19936;-53
2023/06/17 02:57:40;;;;;;;;;;;23.80;57.40;;;;;;5048312;28;19927;-52
2023/06/17 03:00:06;;;;;;;;;;;23.80;57.30;;;;;;5061752;28;20533;-51
2023/06/17 03:02:32;;;;;;;;;;;23.90;57.20;;;;;;5063108;28;20319;-52
2023/06/17 03:04:58;;;;;;;;;;;23.90;57.10;;;;;;5063110;28;20284;-52
2023/06/17 03:07:24;;;;;;;;;;;23.80;57.10;;;;;;5070834;28;20411;-52
2023/06/17 03:09:49;;;;;;;;;;;23.80;57.60;;;;;;5065416;28;19909;-52
2023/06/17 03:12:15;;;;;;;;;;;23.80;57.00;;;;;;5063049;28;19913;-53
2023/06/17 03:14:41;;;;;;;;;;;23.80;57.00;;;;;;5061232;28;20007;-52
2023/06/17 03:17:07;;;;;;;;;;;23.80;57.10;;;;;;5075223;28;19920;-52
2023/06/17 03:19:33;;;;;;;;;;;23.80;57.20;;;;;;5054670;28;19921;-52
2023/06/17 03:21:58;;;;;;;;;;;23.80;57.30;;;;;;5059607;28;19927;-52
2023/06/17 03:24:24;;;;;;;;;;;23.80;57.20;;;;;;5059281;28;19916;-52
2023/06/17 03:26:51;;;;;;;;;;;23.80;57.10;;;;;;5063080;28;20051;-52
2023/06/17 03:29:16;;;;;;;;;;;23.90;57.20;;;;;;5061730;28;20110;-53
2023/06/17 03:31:42;;;;;;;;;;;23.80;57.10;;;;;;5060427;28;21850;-51
2023/06/17 03:34:07;;;;;;;;;;;23.80;57.20;;;;;;5061302;28;19913;-53
2023/06/17 03:36:33;;;;;;;;;;;23.70;57.40;;;;;;5060509;28;20057;-52
2023/06/17 03:38:59;;;;;;;;;;;23.70;57.50;;;;;;5056620;28;19931;-52
2023/06/17 03:41:25;;;;;;;;;;;23.70;57.50;;;;;;5060777;28;19912;-51
2023/06/17 03:43:50;;;;;;;;;;;23.60;57.70;;;;;;5059929;28;20005;-52
2023/06/17 03:46:16;;;;;;;;;;;23.50;57.90;;;;;;5063346;28;20003;-53
2023/06/17 03:48:41;;;;;;;;;;;23.50;57.80;;;;;;5097229;28;19908;-52
2023/06/17 03:51:07;;;;;;;;;;;23.50;57.90;;;;;;5063026;28;19952;-52
2023/06/17 03:53:32;;;;;;;;;;;23.60;57.90;;;;;;5058198;28;20388;-52
2023/06/17 03:55:58;;;;;;;;;;;23.60;57.80;;;;;;5112978;27;19973;-52
2023/06/17 03:58:24;;;;;;;;;;;23.60;57.70;;;;;;5086188;28;19916;-52
2023/06/17 04:00:50;;;;;;;;;;;23.70;57.80;;;;;;5071543;28;20303;-54
2023/06/17 04:03:16;;;;;;;;;;;23.70;57.60;;;;;;5105558;28;19916;-53
2023/06/17 04:05:42;;;;;;;;;;;23.70;57.50;;;;;;5073856;28;19915;-53
2023/06/17 04:08:08;;;;;;;;;;;23.70;57.50;;;;;;5073497;28;19964;-52
2023/06/17 04:10:33;;;;;;;;;;;23.70;57.40;;;;;;5052958;28;20016;-54
2023/06/17 04:12:59;;;;;;;;;;;23.70;57.50;;;;;;5054417;28;19913;-52
2023/06/17 04:15:24;;;;;;;;;;;23.60;57.80;;;;;;5053856;28;19923;-53
2023/06/17 04:17:50;;;;;;;;;;;23.60;57.60;;;;;;5072314;28;19923;-53
2023/06/17 04:20:15;;;;;;;;;;;23.60;57.90;;;;;;5056304;28;19916;-53
2023/06/17 04:22:41;;;;;;;;;;;23.50;57.90;;;;;;5061281;28;19973;-52
2023/06/17 04:25:07;;;;;;;;;;;23.50;57.90;;;;;;5056035;28;19964;-53
2023/06/17 04:27:32;;;;;;;;;;;23.50;57.90;;;;;;5062897;28;19913;-52
2023/06/17 04:29:58;;;;;;;;;;;23.60;57.80;;;;;;5089114;28;20296;-54
2023/06/17 04:32:25;;;;;;;;;;;23.70;57.70;;;;;;5059942;28;19920;-54
2023/06/17 04:34:51;;;;;;;;;;;23.70;57.60;;;;;;5060878;28;19951;-54
2023/06/17 04:37:16;;;;;;;;;;;23.70;57.70;;;;;;5059056;28;19971;-55
2023/06/17 04:39:42;;;;;;;;;;;23.70;57.60;;;;;;5060703;28;19916;-55
2023/06/17 04:42:10;;;;;;;;;;;23.70;57.60;;;;;;5059053;28;20057;-55
2023/06/17 04:44:37;;;;;;;;;;;23.60;57.70;;;;;;5057213;28;19974;-54
2023/06/17 04:47:03;;;;;;;;;;;23.60;57.80;;;;;;5058792;28;20008;-55
2023/06/17 04:49:29;;;;;;;;;;;23.60;57.80;;;;;;5061359;28;20009;-55
2023/06/17 04:51:54;;;;;;;;;;;23.60;57.80;;;;;;5058372;28;20002;-54
2023/06/17 04:54:20;;;;;;;;;;;23.60;57.80;;;;;;5058405;28;20367;-55
2023/06/17 04:56:45;;;;;;;;;;;23.70;57.80;;;;;;5060503;28;20387;-54
2023/06/17 04:59:11;;;;;;;;;;;23.70;57.80;;;;;;5057442;28;20325;-56
2023/06/17 05:01:36;;;;;;;;;;;23.70;57.70;;;;;;5059865;28;19940;-54
2023/06/17 05:04:03;;;;;;;;;;;23.70;57.70;;;;;;5059274;28;19958;-54
2023/06/17 05:06:28;;;;;;;;;;;23.70;57.70;;;;;;5063853;28;19916;-55
2023/06/17 05:08:54;;;;;;;;;;;23.60;57.80;;;;;;5084805;28;20011;-55
2023/06/17 05:11:19;;;;;;;;;;;23.60;58.00;;;;;;5058029;28;19912;-55
2023/06/17 05:13:45;;;;;;;;;;;23.60;58.00;;;;;;5074372;28;19995;-55
2023/06/17 05:16:10;;;;;;;;;;;23.50;57.90;;;;;;5082374;28;19970;-54
2023/06/17 05:18:35;;;;;;;;;;;23.50;57.90;;;;;;5060713;28;19919;-54
2023/06/17 05:21:04;;;;;;;;;;;23.50;57.90;;;;;;5095389;28;19944;-54
2023/06/17 05:23:30;;;;;;;;;;;23.50;57.90;;;;;;5058797;28;20364;-53
2023/06/17 05:25:55;;;;;;;;;;;23.50;57.90;;;;;;5059769;28;19988;-54
2023/06/17 05:28:21;;;;;;;;;;;23.50;57.90;;;;;;5056265;28;19916;-54
2023/06/17 05:30:47;;;;;;;;;;;23.50;57.90;;;;;;5060972;28;22273;-54
2023/06/17 05:33:12;;;;;;;;;;;23.50;57.90;;;;;;5058472;28;19912;-54
2023/06/17 05:35:37;;;;;;;;;;;23.60;58.00;;;;;;5054739;28;19913;-54
2023/06/17 05:38:03;;;;;;;;;;;23.60;58.00;;;;;;5051772;28;20404;-53
2023/06/17 05:40:28;;;;;;;;;;;23.60;58.00;;;;;;5054509;28;20274;-54
2023/06/17 05:42:54;;;;;;;;;;;23.60;58.00;;;;;;5056836;28;19912;-54
2023/06/17 05:45:19;;;;;;;;;;;23.60;58.00;;;;;;5058294;28;19916;-54
2023/06/17 05:47:46;;;;;;;;;;;23.60;58.00;;;;;;5060025;28;20373;-54
2023/06/17 05:50:11;;;;;;;;;;;23.60;58.00;;;;;;5070814;28;19912;-55
2023/06/17 05:52:36;;;;;;;;;;;23.50;57.90;;;;;;5069504;28;19920;-54
2023/06/17 05:55:02;;;;;;;;;;;23.40;58.00;;;;;;5071371;28;19908;-54
2023/06/17 05:57:27;;;;;;;;;;;23.50;58.00;;;;;;5055441;28;19928;-54
2023/06/17 05:59:53;;;;;;;;;;;23.60;58.00;;;;;;5068494;28;19969;-54
2023/06/17 06:02:18;;;;;;;;;;;23.50;57.90;;;;;;5061335;28;19916;-52
2023/06/17 06:04:44;;;;;;;;;;;23.50;57.90;;;;;;5082466;28;19915;-52
2023/06/17 06:07:09;;;;;;;;;;;23.60;58.10;;;;;;5057085;28;19913;-52
2023/06/17 06:09:35;;;;;;;;;;;23.60;58.00;;;;;;5083543;28;19909;-52
2023/06/17 06:12:00;;;;;;;;;;;23.60;58.00;;;;;;5064161;28;19921;-53
2023/06/17 06:14:26;;;;;;;;;;;23.60;58.00;;;;;;5059222;28;20404;-53
2023/06/17 06:16:51;;;;;;;;;;;23.60;58.00;;;;;;5054553;28;20381;-52
2023/06/17 06:19:17;;;;;;;;;;;23.60;58.00;;;;;;5051760;28;19945;-52
2023/06/17 06:21:42;;;;;;;;;;;23.60;58.00;;;;;;5052255;28;19916;-52
2023/06/17 06:24:08;;;;;;;;;;;23.70;58.00;;;;;;5088285;28;19917;-52
2023/06/17 06:26:33;;;;;;;;;;;23.70;58.00;;;;;;5059056;28;19921;-53
2023/06/17 06:28:59;;;;;;;;;;;23.70;58.00;;;;;;5056035;28;19912;-52
2023/06/17 06:31:24;;;;;;;;;;;23.70;58.00;;;;;;5058828;28;19921;-52
2023/06/17 06:33:50;;;;;;;;;;;23.60;58.00;;;;;;5050571;28;19952;-52
2023/06/17 06:36:16;;;;;;;;;;;23.60;58.10;;;;;;5061386;28;19922;-52
2023/06/17 06:38:41;;;;;;;;;;;23.70;58.10;;;;;;5057076;28;19924;-52
2023/06/17 06:41:07;;;;;;;;;;;23.60;58.00;;;;;;5057179;28;19912;-52
2023/06/17 06:43:32;;;;;;;;;;;23.60;58.00;;;;;;5056600;28;19952;-53
2023/06/17 06:45:57;;;;;;;;;;;23.60;58.00;;;;;;5054646;28;19982;-52
2023/06/17 06:48:23;;;;;;;;;;;23.70;58.10;;;;;;5055903;28;19978;-53
2023/06/17 06:50:48;;;;;;;;;;;23.70;58.00;;;;;;5059491;28;20292;-53
2023/06/17 06:53:14;;;;;;;;;;;23.70;58.00;;;;;;5054117;28;19913;-51
2023/06/17 06:55:39;;;;;;;;;;;23.70;58.00;;;;;;5058477;28;20275;-54
2023/06/17 06:58:05;;;;;;;;;;;23.70;58.00;;;;;;5064741;28;19955;-54
2023/06/17 07:00:30;;;;;;;;;;;23.60;58.00;;;;;;5050911;28;19917;-54
2023/06/17 07:02:56;;;;;;;;;;;23.60;58.00;;;;;;5055368;28;20365;-54
2023/06/17 07:05:22;;;;;;;;;;;23.70;58.10;;;;;;5057856;28;19919;-55
2023/06/17 07:07:47;;;;;;;;;;;23.70;58.10;;;;;;5070693;28;19920;-54
2023/06/17 07:10:13;;;;;;;;;;;23.70;58.10;;;;;;5055298;28;20318;-54
2023/06/17 07:12:40;;;;;;;;;;;23.70;58.70;;;;;;5056011;28;20280;-54
2023/06/17 07:15:05;;;;;;;;;;;23.60;58.10;;;;;;5049281;28;19920;-54
2023/06/17 07:17:31;;;;;;;;;;;23.70;58.70;;;;;;5060094;28;19924;-54
2023/06/17 07:19:56;;;;;;;;;;;23.70;58.10;;;;;;5062786;28;19921;-54
2023/06/17 07:22:22;;;;;;;;;;;23.70;58.10;;;;;;5063155;28;19962;-54
2023/06/17 07:24:47;;;;;;;;;;;23.70;58.10;;;;;;5056948;28;19913;-54
2023/06/17 07:27:13;;;;;;;;;;;23.60;58.00;;;;;;5062231;28;19913;-52
2023/06/17 07:29:38;;;;;;;;;;;23.70;58.10;;;;;;5060840;28;21381;-52
2023/06/17 07:32:04;;;;;;;;;;;23.70;58.10;;;;;;5059962;28;20335;-52
2023/06/17 07:34:29;;;;;;;;;;;23.60;58.30;;;;;;5061967;28;19927;-53
2023/06/17 07:36:55;;;;;;;;;;;23.60;58.30;;;;;;5058520;28;20399;-52
2023/06/17 07:39:20;;;;;;;;;;;23.70;58.20;;;;;;5058655;28;19987;-52
2023/06/17 07:41:46;;;;;;;;;;;23.70;58.10;;;;;;5059768;28;19913;-52
2023/06/17 07:44:11;;;;;;;;;;;23.70;58.10;;;;;;5049985;28;19928;-52
2023/06/17 07:46:36;;;;;;;;;;;23.70;58.10;;;;;;5058946;28;20035;-53
2023/06/17 07:49:02;;;;;;;;;;;23.70;58.10;;;;;;5061312;28;19920;-52
2023/06/17 07:51:27;;;;;;;;;;;23.80;58.10;;;;;;5060854;28;19912;-52
2023/06/17 07:53:53;;;;;;;;;;;23.70;58.10;;;;;;5061594;28;19924;-52
2023/06/17 07:56:18;;;;;;;;;;;23.70;58.10;;;;;;5073299;28;19924;-53
2023/06/17 07:58:44;;;;;;;;;;;23.80;58.10;;;;;;5060143;28;19962;-51
2023/06/17 08:01:10;;;;;;;;;;;23.80;58.10;;;;;;5061255;28;20019;-52
2023/06/17 08:03:35;;;;;;;;;;;23.80;58.20;;;;;;5063951;28;19941;-52
2023/06/17 08:06:01;;;;;;;;;;;23.80;58.10;;;;;;5056586;28;19928;-53
2023/06/17 08:08:26;;;;;;;;;;;23.80;58.10;;;;;;5062795;28;19966;-54
2023/06/17 08:10:52;;;;;;;;;;;23.80;58.10;;;;;;5059009;28;19928;-52
2023/06/17 08:13:17;;;;;;;;;;;23.90;58.20;;;;;;5062233;28;20007;-53
2023/06/17 08:15:43;;;;;;;;;;;23.80;58.10;;;;;;5073327;28;19912;-52
2023/06/17 08:18:08;;;;;;;;;;;23.80;58.10;;;;;;5065864;28;19920;-52
2023/06/17 08:20:36;;;;;;;;;;;23.90;58.00;;;;;;5087413;27;19928;-53
2023/06/17 08:23:02;;;;;;;;;;;23.90;58.00;;;;;;5091394;28;19913;-52
2023/06/17 08:25:27;;;;;;;;;;;23.80;58.10;;;;;;5064038;28;19912;-52
2023/06/17 08:27:53;;;;;;;;;;;23.80;58.20;;;;;;5058814;28;19917;-53
2023/06/17 08:30:18;;;;;;;;;;;23.90;58.20;;;;;;5066262;28;20328;-54
2023/06/17 08:32:44;;;;;;;;;;;23.90;58.20;;;;;;5063455;28;20003;-54
2023/06/17 08:35:09;;;;;;;;;;;23.70;58.10;;;;;;5062192;28;19913;-53
2023/06/17 08:37:35;;;;;;;;;;;23.80;58.20;;;;;;5063196;28;20273;-54
2023/06/17 08:40:01;;;;;;;;;;;23.80;58.10;;;;;;5070811;28;20457;-53
2023/06/17 08:42:27;;;;;;;;;;;23.90;58.00;;;;;;5068303;28;20392;-53
2023/06/17 08:44:53;;;;;;;;;;;23.80;58.10;;;;;;5072905;28;19924;-53
2023/06/17 08:47:18;;;;;;;;;;;23.80;58.10;;;;;;5071275;28;20016;-54
2023/06/17 08:49:44;;;;;;;;;;;23.90;58.10;;;;;;5098549;27;19923;-54
2023/06/17 08:52:11;;;;;;;;;;;23.90;58.00;;;;;;5069263;28;19935;-53
2023/06/17 08:54:40;;;;;;;;;;;23.90;57.90;;;;;;5071886;28;20013;-54
2023/06/17 08:57:12;;;;;;;;;;;23.90;57.90;;;;;;5070935;28;19966;-54
2023/06/17 08:59:38;;;;;;;;;;;23.90;58.00;;;;;;5072897;28;19923;-53
2023/06/17 09:02:03;;;;;;;;;;;23.90;57.90;;;;;;5062888;28;19913;-54
2023/06/17 09:04:29;;;;;;;;;;;24.00;57.70;;;;;;5066396;28;19931;-53
2023/06/17 09:06:55;;;;;;;;;;;24.00;57.50;;;;;;5051933;28;19913;-53
2023/06/17 09:09:21;;;;;;;;;;;24.00;57.60;;;;;;5054048;28;19913;-53
2023/06/17 09:11:50;;;;;;;;;;;24.00;57.50;;;;;;5062275;28;19914;-53
2023/06/17 09:14:16;;;;;;;;;;;24.10;57.50;;;;;;5064489;28;20411;-54
2023/06/17 09:16:41;;;;;;;;;;;24.10;57.50;;;;;;5069706;28;19975;-53
2023/06/17 09:19:09;;;;;;;;;;;24.00;57.30;;;;;;5072777;28;19983;-53
2023/06/17 09:21:34;;;;;;;;;;;24.00;57.40;;;;;;5061339;28;20385;-54
2023/06/17 09:24:00;;;;;;;;;;;24.10;57.50;;;;;;5060297;28;19960;-53
2023/06/17 09:26:29;;;;;;;;;;;24.10;57.50;;;;;;5063587;28;19908;-53
2023/06/17 09:29:02;;;;;;;;;;;24.00;57.30;;;;;;5056134;28;19916;-53
2023/06/17 09:31:28;;;;;;;;;;;24.10;57.40;;;;;;5058497;28;19966;-53
2023/06/17 09:33:54;;;;;;;;;;;24.00;57.40;;;;;;5060442;28;19916;-53
2023/06/17 09:36:20;;;;;;;;;;;24.00;57.40;;;;;;5062484;28;20438;-53
2023/06/17 09:38:45;;;;;;;;;;;24.00;57.40;;;;;;5062523;28;19931;-53
2023/06/17 09:41:14;;;;;;;;;;;24.00;57.20;;;;;;5070163;28;19917;-53
2023/06/17 09:43:41;;;;;;;;;;;24.00;57.20;;;;;;5071260;28;19921;-53
2023/06/17 09:46:06;;;;;;;;;;;24.10;57.30;;;;;;5104238;28;19909;-53
2023/06/17 09:48:32;;;;;;;;;;;24.10;57.00;;;;;;5069596;28;19965;-53
2023/06/17 09:50:58;;;;;;;;;;;24.20;56.90;;;;;;5071905;28;19912;-53
2023/06/17 09:53:24;;;;;;;;;;;24.20;56.70;;;;;;5071109;28;19917;-54
2023/06/17 09:55:55;;;;;;;;;;;24.20;56.90;;;;;;5100792;28;19909;-54
2023/06/17 09:58:22;;;;;;;;;;;24.20;56.80;;;;;;5066342;28;19923;-53
2023/06/17 10:00:47;;;;;;;;;;;24.30;57.00;;;;;;5070682;28;19908;-53
2023/06/17 10:03:13;;;;;;;;;;;24.40;56.60;;;;;;5070238;28;19919;-53
2023/06/17 10:05:38;;;;;;;;;;;24.40;56.50;;;;;;5068999;28;19916;-53
2023/06/17 10:08:04;;;;;;;;;;;24.30;56.60;;;;;;5057461;28;19916;-53
2023/06/17 10:10:29;;;;;;;;;;;24.30;56.80;;;;;;5061118;28;20425;-53
2023/06/17 10:12:54;;;;;;;;;;;24.40;56.60;;;;;;5069521;28;20372;-53
2023/06/17 10:15:20;;;;;;;;;;;24.50;56.40;;;;;;5071166;28;19912;-53
2023/06/17 10:17:45;;;;;;;;;;;24.50;56.40;;;;;;5070183;28;20047;-53
2023/06/17 10:20:11;;;;;;;;;;;24.50;56.20;;;;;;5067182;28;19917;-54
2023/06/17 10:22:37;;;;;;;;;;;24.40;56.40;;;;;;5089642;28;19912;-53
2023/06/17 10:25:04;;;;;;;;;;;24.40;56.50;;;;;;5090081;28;19908;-54
2023/06/17 10:27:31;;;;;;;;;;;24.50;55.90;;;;;;5091215;28;19912;-54
2023/06/17 10:29:57;;;;;;;;;;;24.60;55.60;;;;;;5087363;28;20284;-54
2023/06/17 10:32:24;;;;;;;;;;;24.60;55.80;;;;;;5063591;28;19967;-54
2023/06/17 10:35:05;;;;;;;;;;;24.60;55.60;;;;;;5096606;28;20346;-54
2023/06/17 10:37:30;;;;;;;;;;;24.60;55.70;;;;;;5059146;28;19961;-55
2023/06/17 10:40:16;;;;;;;;;;;24.70;54.90;;;;;;5051125;28;20257;-55
2023/06/17 10:42:51;;;;;;;;;;;24.70;55.00;;;;;;5051456;28;20011;-54
2023/06/17 10:45:17;;;;;;;;;;;24.70;55.20;;;;;;5060400;28;19951;-54
2023/06/17 10:47:42;;;;;;;;;;;24.80;55.00;;;;;;5063090;28;19958;-55
2023/06/17 10:50:09;;;;;;;;;;;24.80;54.80;;;;;;5051406;28;19913;-54
2023/06/17 10:52:34;;;;;;;;;;;24.80;54.80;;;;;;5050167;28;20327;-54
2023/06/17 10:55:00;;;;;;;;;;;24.80;55.20;;;;;;5085020;28;19913;-54
2023/06/17 10:57:29;;;;;;;;;;;24.70;55.20;;;;;;5060295;28;20381;-54
2023/06/17 10:59:55;;;;;;;;;;;24.70;55.10;;;;;;5107868;28;20400;-54
2023/06/17 11:02:20;;;;;;;;;;;24.70;55.20;;;;;;5075252;28;19940;-54
2023/06/17 11:04:46;;;;;;;;;;;24.70;56.00;;;;;;5073536;28;20112;-54
2023/06/17 11:07:13;;;;;;;;;;;24.70;55.30;;;;;;5073459;28;19924;-54
2023/06/17 11:09:38;;;;;;;;;;;24.70;55.10;;;;;;5064578;28;19916;-54
2023/06/17 11:12:04;;;;;;;;;;;24.70;54.90;;;;;;5055069;28;19919;-54
2023/06/17 11:14:30;;;;;;;;;;;24.80;54.70;;;;;;5059261;28;20383;-54
2023/06/17 11:16:55;;;;;;;;;;;24.80;54.50;;;;;;5072981;28;19924;-54
2023/06/17 11:19:21;;;;;;;;;;;24.80;54.50;;;;;;5090381;28;20395;-54
2023/06/17 11:21:49;;;;;;;;;;;24.80;54.50;;;;;;5106650;28;20296;-54
2023/06/17 11:24:15;;;;;;;;;;;24.70;54.20;;;;;;5073337;28;19912;-54
2023/06/17 11:26:40;;;;;;;;;;;24.70;54.10;;;;;;5064720;28;20358;-54
2023/06/17 11:29:06;;;;;;;;;;;24.70;54.20;;;;;;5065326;28;20352;-54
2023/06/17 11:31:38;;;;;;;;;;;24.70;54.30;;;;;;5073374;28;19917;-54
2023/06/17 11:34:03;;;;;;;;;;;24.70;54.30;;;;;;5074837;28;19912;-55
2023/06/17 11:36:29;;;;;;;;;;;24.70;54.10;;;;;;5073642;28;20361;-54
2023/06/17 11:38:55;;;;;;;;;;;24.80;54.30;;;;;;5074524;28;20008;-55
2023/06/17 11:41:23;;;;;;;;;;;24.90;54.20;;;;;;5073607;28;19943;-54
2023/06/17 11:43:49;;;;;;;;;;;24.90;53.80;;;;;;5067337;28;19932;-56
2023/06/17 11:46:19;;;;;;;;;;;24.90;53.80;;;;;;5106894;28;19913;-56
2023/06/17 11:48:46;;;;;;;;;;;25.00;53.90;;;;;;5074547;28;19909;-56
2023/06/17 11:51:15;;;;;;;;;;;24.90;53.50;;;;;;5066285;28;20239;-56
2023/06/17 11:53:43;;;;;;;;;;;24.90;53.70;;;;;;5068043;28;19912;-54
2023/06/17 11:56:08;;;;;;;;;;;24.90;53.50;;;;;;5073199;28;20347;-55
2023/06/17 11:58:34;;;;;;;;;;;24.90;54.50;;;;;;5074338;28;19913;-56
2023/06/17 12:01:00;;;;;;;;;;;24.90;53.60;;;;;;5060498;28;20253;-56
2023/06/17 12:03:26;;;;;;;;;;;24.90;53.40;;;;;;5069387;28;19923;-55
2023/06/17 12:05:51;;;;;;;;;;;24.90;53.60;;;;;;5071713;28;19912;-56
2023/06/17 12:08:17;;;;;;;;;;;24.90;53.80;;;;;;5074187;28;19912;-56
2023/06/17 12:10:42;;;;;;;;;;;25.00;53.40;;;;;;5069934;28;20277;-56
2023/06/17 12:13:11;;;;;;;;;;;25.10;53.00;;;;;;5071685;28;20246;-56
2023/06/17 12:15:36;;;;;;;;;;;25.20;52.70;;;;;;5061214;28;19913;-56
2023/06/17 12:18:12;;;;;;;;;;;25.30;52.20;;;;;;5053844;28;19920;-56
2023/06/17 12:20:37;;;;;;;;;;;25.40;51.70;;;;;;5054335;28;19916;-55
2023/06/17 12:23:03;;;;;;;;;;;25.50;51.50;;;;;;5071617;28;19913;-55
2023/06/17 12:25:35;;;;;;;;;;;25.40;51.60;;;;;;5073113;28;19913;-55
2023/06/17 12:28:01;;;;;;;;;;;25.30;51.90;;;;;;5073681;28;19956;-56
2023/06/17 12:30:27;;;;;;;;;;;25.30;52.20;;;;;;5071757;28;20256;-55
2023/06/17 12:32:53;;;;;;;;;;;25.30;51.60;;;;;;5073604;28;19908;-56
2023/06/17 12:35:19;;;;;;;;;;;25.30;51.80;;;;;;5071950;28;19913;-53
2023/06/17 12:37:45;;;;;;;;;;;25.30;51.90;;;;;;5073559;28;19919;-54
2023/06/17 12:40:11;;;;;;;;;;;25.30;51.70;;;;;;5062115;28;19963;-54
2023/06/17 12:42:37;;;;;;;;;;;25.30;51.60;;;;;;5060001;28;19989;-54
2023/06/17 12:45:03;;;;;;;;;;;25.30;51.40;;;;;;5071361;28;20452;-56
2023/06/17 12:47:30;;;;;;;;;;;25.30;51.10;;;;;;5073636;28;19912;-54
2023/06/17 12:49:55;;;;;;;;;;;25.30;51.30;;;;;;5063995;28;19916;-54
2023/06/17 12:52:21;;;;;;;;;;;25.40;51.50;;;;;;5073086;28;19983;-54
2023/06/17 12:54:48;;;;;;;;;;;25.40;51.20;;;;;;5065988;28;19912;-54
2023/06/17 12:57:14;;;;;;;;;;;25.40;50.90;;;;;;5099044;28;19974;-54
2023/06/17 12:59:40;;;;;;;;;;;25.30;51.20;;;;;;5070124;28;20295;-53
2023/06/17 13:02:05;;;;;;;;;;;25.30;51.10;;;;;;5072149;28;19919;-53
2023/06/17 13:04:31;;;;;;;;;;;25.30;51.00;;;;;;5069636;28;19966;-53
2023/06/17 13:06:57;;;;;;;;;;;25.30;51.00;;;;;;5070621;28;20019;-54
2023/06/17 13:09:23;;;;;;;;;;;25.30;50.80;;;;;;5064355;28;19962;-54
2023/06/17 13:11:48;;;;;;;;;;;25.40;51.00;;;;;;5072936;28;19908;-54
2023/06/17 13:14:14;;;;;;;;;;;25.40;51.10;;;;;;5073008;28;20422;-53
2023/06/17 13:16:40;;;;;;;;;;;25.30;50.90;;;;;;5072285;28;20348;-53
2023/06/17 13:19:07;;;;;;;;;;;25.40;51.00;;;;;;5071806;28;20359;-54
2023/06/17 13:21:33;;;;;;;;;;;25.40;51.20;;;;;;5059064;28;20357;-54
2023/06/17 13:23:59;;;;;;;;;;;25.40;51.00;;;;;;5069812;28;19923;-53
2023/06/17 13:26:28;;;;;;;;;;;25.30;51.50;;;;;;5069521;28;20268;-53
2023/06/17 13:28:54;;;;;;;;;;;25.30;53.00;;;;;;5063741;28;19913;-54
2023/06/17 13:31:19;;;;;;;;;;;25.20;53.50;;;;;;5067340;28;20284;-53
2023/06/17 13:33:45;;;;;;;;;;;25.20;53.80;;;;;;5054401;28;19924;-53
2023/06/17 13:36:10;;;;;;;;;;;25.20;54.10;;;;;;5096229;28;20019;-54
2023/06/17 13:38:36;;;;;;;;;;;25.20;54.10;;;;;;5068357;28;19952;-53
2023/06/17 13:41:01;;;;;;;;;;;25.10;54.40;;;;;;5067402;28;20373;-53
2023/06/17 13:43:27;;;;;;;;;;;25.10;54.70;;;;;;5065041;28;20331;-53
2023/06/17 13:45:53;;;;;;;;;;;25.00;54.80;;;;;;5060542;28;20357;-54
2023/06/17 13:48:19;;;;;;;;;;;25.00;55.00;;;;;;5062191;28;20519;-51
2023/06/17 13:50:44;;;;;;;;;;;25.00;55.00;;;;;;5056074;28;19924;-53
2023/06/17 13:53:10;;;;;;;;;;;25.00;54.80;;;;;;5059425;28;20280;-52
2023/06/17 13:55:36;;;;;;;;;;;25.00;54.70;;;;;;5065568;28;19919;-53
2023/06/17 13:58:01;;;;;;;;;;;25.10;54.60;;;;;;5064994;28;19924;-53
2023/06/17 14:00:27;;;;;;;;;;;25.10;55.00;;;;;;5053941;28;19974;-54
2023/06/17 14:02:52;;;;;;;;;;;25.10;54.90;;;;;;5060819;28;20376;-52
2023/06/17 14:05:18;;;;;;;;;;;25.10;54.90;;;;;;5065738;28;20312;-52
2023/06/17 14:07:44;;;;;;;;;;;25.00;54.70;;;;;;5057224;28;19917;-53
2023/06/17 14:10:10;;;;;;;;;;;25.00;55.00;;;;;;5067416;28;19927;-52